METAR AND TAF INFORMATION
METAR FOR ENSB
ADDS - METARS form results

(1059 UTC 16 October 2018)
Data provider http://aviationweather.gov/metar/data/
 
METAR text: ENSB 161050Z VRB02KT 9999 FEW020 BKN040 02/M00 Q0995 NOSIG RMK WIND 1400FT 15004KT
Conditions at: ENSB (SVALBARD/LONGYEA, NO) observed 1050 UTC 16 October 2018
Temperature: 2.0°C (36°F)
Dewpoint: 0.0°C (32°F) [RH = 87%]
Pressure (altimeter): 29.38 inches Hg (995.0 mb)
Winds: variable direction winds at 2 MPH (2 knots; 1.0 m/s)
Visibility: 6 or more miles (10+ km)
Ceiling: 4000 feet AGL
Clouds: few clouds at 2000 feet AGL
broken clouds at 4000 feet AGL
Weather: no significant weather observed at this time

METAR text: ENSB 161020Z 25003KT 230V290 9999 FEW020 BKN040 03/00 Q0994 NOSIG RMK WIND 1400FT 18006KT
Conditions at: ENSB (SVALBARD/LONGYEA, NO) observed 1020 UTC 16 October 2018
Temperature: 3.0°C (37°F)
Dewpoint: 0.0°C (32°F) [RH = 81%]
Pressure (altimeter): 29.35 inches Hg (994.0 mb)
Winds: from the WSW (250 degrees) at 3 MPH (3 knots; 1.5 m/s)
Visibility: 6 or more miles (10+ km)
Ceiling: 4000 feet AGL
Clouds: few clouds at 2000 feet AGL
broken clouds at 4000 feet AGL
Weather: no significant weather observed at this time

Forecast for: ENSB (SVALBARD/LONGYEA, NO)
Text: TAF ENSB 1606/1706 14008KT 9999 FEW010 BKN020
Forecast period: 0600 UTC 16 October 2018 to 0600 UTC 17 October 2018
Forecast type: FROM: standard forecast or significant change
Winds: from the SE (140 degrees) at 9 MPH (8 knots; 4.1 m/s)
Visibility: 6 or more miles 10+ km)
Ceiling: 2000 feet AGL
Clouds: few clouds at 1000 feet AGL
broken clouds at 2000 feet AGL
Weather: no significant weather forecast for this period
Text: TEMPO 1615/1624 24015KT 4000 SHRASN VV012
Forecast period: 1500 UTC 16 October 2018 to 0000 UTC 17 October 2018
Forecast type: TEMPORARY: The following changes expected for less than half the time period
Winds: from the WSW (240 degrees) at 17 MPH (15 knots; 7.7 m/s)
Visibility: 2.49 miles (4.01 km)
Ceiling: indefinite ceiling with vertical visibility of 1200 feet AGL
Clouds: obscured sky
Weather: SHRA SHSN  (rain showers, snow showers)

 AIRPORT MAP

 RUNWAY INFORMATION
Runway 10 Runway length 7608 ft Runway width 148 ft
Runway elevation 63 ft Runway displaced threshold 199 ft Runway heading 105
Runway 28 Runway length 7608 ft Runway width 148 ft
Runway elevation 73 ft Runway displaced threshold 395 ft Runway heading 285

 AIRPORT FREQUENCIES
Type AFIS Name INFO Frequency 118.1 MHZ
Type AFIS Name INFO Frequency 884 MHZ

 AIRPORT NEAR NAVIGATION AIDS



Copyright © 2011 - 2018 BirgenAir Virtual Airlines. All rights reserved. Developed by Goktug Unver